Time;durP1;ratioP1;P1;durP2;ratioP2;P2;SDS_P1;SDS_P2;PMS_P1;PMS_P2;Temp;Humidity;BMP_temperature;BMP_pressure;BME280_temperature;BME280_humidity;BME280_pressure;Samples;Min_cycle;Max_cycle;Signal;HPM_P1;HPM_P2
2022/06/13 00:00:25;;;;;;;0.10;0.10;;;18.80;78.90;;;;;;5032137;28;20029;-72
2022/06/13 00:02:51;;;;;;;0.20;0.20;;;18.80;77.20;;;;;;5032214;28;20489;-73
2022/06/13 00:05:17;;;;;;;0.10;0.10;;;18.70;76.30;;;;;;5032168;28;20063;-73
2022/06/13 00:07:43;;;;;;;0.90;0.30;;;18.90;73.00;;;;;;5014161;28;20025;-73
2022/06/13 00:10:11;;;;;;;0.08;0.08;;;19.10;71.40;;;;;;5014095;28;20148;-72
2022/06/13 00:12:39;;;;;;;0.10;0.10;;;19.30;70.70;;;;;;5031921;28;20022;-72
2022/06/13 00:15:06;;;;;;;0.35;0.35;;;19.40;70.00;;;;;;5032000;28;20024;-73
2022/06/13 00:17:32;;;;;;;1.98;1.00;;;19.60;71.00;;;;;;5014443;28;20048;-73
2022/06/13 00:19:57;;;;;;;0.10;0.10;;;19.50;71.20;;;;;;5031852;28;20108;-73
2022/06/13 00:22:23;;;;;;;0.10;0.10;;;19.50;73.30;;;;;;5031913;28;20473;-72
2022/06/13 00:24:49;;;;;;;0.10;0.10;;;19.30;75.50;;;;;;5014075;28;20022;-73
2022/06/13 00:27:15;;;;;;;0.10;0.10;;;19.20;79.00;;;;;;4997688;28;20033;-73
2022/06/13 00:29:42;;;;;;;0.20;0.20;;;19.10;82.20;;;;;;5031726;28;20152;-73
2022/06/13 00:32:08;;;;;;;0.75;0.75;;;18.90;83.50;;;;;;5031939;28;20101;-73
2022/06/13 00:34:33;;;;;;;0.40;0.40;;;18.80;83.60;;;;;;5031871;28;20024;-73
2022/06/13 00:36:59;;;;;;;0.43;0.43;;;18.60;85.10;;;;;;5033220;28;20597;-73
2022/06/13 00:39:25;;;;;;;0.17;0.17;;;18.60;86.00;;;;;;5018045;28;20064;-73
2022/06/13 00:41:51;;;;;;;0.20;0.20;;;18.50;86.80;;;;;;5035511;28;20365;-73
2022/06/13 00:44:21;;;;;;;0.28;0.28;;;18.50;88.40;;;;;;5035688;28;20029;-73
2022/06/13 00:46:47;;;;;;;0.70;0.70;;;18.50;90.10;;;;;;5017822;28;20021;-73
2022/06/13 00:49:21;;;;;;;0.75;0.30;;;18.40;91.00;;;;;;5035500;28;20417;-73
2022/06/13 00:51:51;;;;;;;1.10;0.93;;;18.30;93.90;;;;;;5017945;28;20049;-73
2022/06/13 00:54:19;;;;;;;0.15;0.15;;;18.10;99.90;;;;;;5035531;28;20028;-73
2022/06/13 00:56:48;;;;;;;1.67;0.75;;;18.00;99.90;;;;;;5001267;28;20022;-73
2022/06/13 00:59:18;;;;;;;2.72;1.67;;;18.00;99.90;;;;;;5035310;28;20022;-73
2022/06/13 01:01:44;;;;;;;0.88;0.88;;;18.00;99.90;;;;;;5017602;28;20029;-73
2022/06/13 01:04:10;;;;;;;1.23;0.80;;;17.90;99.90;;;;;;5035298;28;20427;-73
2022/06/13 01:06:43;;;;;;;0.10;0.10;;;17.70;99.90;;;;;;5035171;28;20033;-73
2022/06/13 01:09:11;;;;;;;0.10;0.10;;;17.70;99.90;;;;;;5035192;28;20022;-73
2022/06/13 01:11:41;;;;;;;1.23;0.57;;;17.70;99.90;;;;;;5035009;28;20502;-73
2022/06/13 01:14:47;;;;;;;0.60;0.60;;;17.70;99.90;;;;;;5017356;28;20079;-73
2022/06/13 01:17:12;;;;;;;0.10;0.10;;;17.60;99.90;;;;;;5035112;28;20052;-72
2022/06/13 01:20:03;;;;;;;0.13;0.13;;;17.60;99.90;;;;;;5017308;28;20017;-73
2022/06/13 01:22:50;;;;;;;1.55;1.45;;;17.60;99.90;;;;;;5034991;28;20026;-73
2022/06/13 01:25:38;;;;;;;0.00;0.00;;;17.40;99.90;;;;;;5034915;28;20548;-73
2022/06/13 01:28:35;;;;;;;0.17;0.17;;;17.50;99.90;;;;;;5034859;28;20113;-73
2022/06/13 01:31:37;;;;;;;0.32;0.32;;;17.50;99.90;;;;;;5016983;28;20036;-73
2022/06/13 01:34:18;;;;;;;0.22;0.22;;;17.50;99.90;;;;;;5034765;28;20017;-73
2022/06/13 01:37:14;;;;;;;0.00;0.00;;;17.60;99.90;;;;;;5034808;28;20025;-73
2022/06/13 01:40:06;;;;;;;0.00;0.00;;;17.70;99.90;;;;;;5034618;28;20021;-73
2022/06/13 01:42:59;;;;;;;0.10;0.10;;;17.80;99.90;;;;;;5034599;28;20030;-73
2022/06/13 01:45:27;;;;;;;;;;;18.10;99.90;;;;;;5004572;28;20038;-73
2022/06/13 01:48:24;;;;;;;0.32;0.32;;;18.10;99.90;;;;;;5016564;28;19905;-73
2022/06/13 01:51:15;;;;;;;2.75;0.90;;;18.00;99.90;;;;;;5034394;28;20402;-74
2022/06/13 01:53:43;;;;;;;0.30;0.20;;;17.60;99.90;;;;;;5016650;28;20499;-73
2022/06/13 01:56:12;;;;;;;0.00;0.00;;;17.50;99.90;;;;;;5034313;28;20022;-74
2022/06/13 01:59:19;;;;;;;0.00;0.00;;;17.40;99.90;;;;;;5016561;28;20381;-74
2022/06/13 02:02:06;;;;;;;0.00;0.00;;;17.50;99.90;;;;;;5006427;28;20033;-74
2022/06/13 02:04:37;;;;;;;0.10;0.10;;;17.50;99.90;;;;;;5016389;28;20389;-74
2022/06/13 02:07:11;;;;;;;0.85;0.82;;;17.70;99.90;;;;;;5034158;28;20075;-74
2022/06/13 02:09:54;;;;;;;0.00;0.00;;;17.70;99.90;;;;;;5016263;28;20018;-74
2022/06/13 02:12:22;;;;;;;0.10;0.10;;;18.00;99.90;;;;;;5016344;28;20033;-73
2022/06/13 02:15:03;;;;;;;0.10;0.10;;;17.90;99.90;;;;;;5016364;28;20029;-73
2022/06/13 02:17:33;;;;;;;0.00;0.00;;;17.90;99.90;;;;;;5016267;28;20060;-74
2022/06/13 02:20:10;;;;;;;0.10;0.10;;;18.10;99.90;;;;;;5016136;28;20034;-74
2022/06/13 02:22:40;;;;;;;0.13;0.13;;;18.30;99.90;;;;;;5033892;28;20029;-74
2022/06/13 02:25:30;;;;;;;0.10;0.10;;;18.30;99.90;;;;;;5033799;28;20025;-73
2022/06/13 02:28:11;;;;;;;0.10;0.10;;;18.00;99.90;;;;;;5033062;28;20046;-73
2022/06/13 02:30:45;;;;;;;0.00;0.00;;;18.10;99.90;;;;;;5033719;28;20031;-74
2022/06/13 02:33:18;;;;;;;0.10;0.10;;;18.00;99.90;;;;;;5033707;28;20219;-74
2022/06/13 02:35:52;;;;;;;0.10;0.10;;;18.10;99.90;;;;;;5033598;28;20097;-74
2022/06/13 02:38:26;;;;;;;0.10;0.10;;;18.10;99.90;;;;;;5015710;28;20033;-74
2022/06/13 02:40:58;;;;;;;0.00;0.00;;;18.20;99.90;;;;;;5015810;28;20160;-74
2022/06/13 02:43:26;;;;;;;;;;;18.20;99.90;;;;;;5016139;28;20128;-74
2022/06/13 02:46:00;;;;;;;0.00;0.00;;;18.30;99.90;;;;;;5033402;28;19905;-74
2022/06/13 02:48:53;;;;;;;0.52;0.52;;;18.20;99.90;;;;;;5033324;28;20034;-74
2022/06/13 02:51:28;;;;;;;0.00;0.00;;;18.20;99.90;;;;;;5033270;28;20034;-74
2022/06/13 02:54:03;;;;;;;0.00;0.00;;;18.30;99.90;;;;;;4999145;28;20022;-72
2022/06/13 02:57:25;;;;;;;0.03;0.03;;;18.50;99.90;;;;;;5033215;28;20097;-72
2022/06/13 03:00:19;;;;;;;0.00;0.00;;;18.50;99.90;;;;;;5032501;28;20034;-73
2022/06/13 03:03:03;;;;;;;0.25;0.25;;;18.60;99.90;;;;;;5015333;28;20040;-73
2022/06/13 03:05:47;;;;;;;0.22;0.22;;;18.60;99.90;;;;;;5032993;28;20071;-73
2022/06/13 03:08:19;;;;;;;0.00;0.00;;;18.20;99.90;;;;;;5032991;28;20665;-73
2022/06/13 03:11:06;;;;;;;4.93;4.28;;;18.20;99.90;;;;;;5032807;28;20083;-73
2022/06/13 03:13:54;;;;;;;0.10;0.10;;;18.10;99.90;;;;;;5032925;28;20028;-72
2022/06/13 03:16:40;;;;;;;0.00;0.00;;;18.10;99.90;;;;;;4998736;28;20064;-73
2022/06/13 03:19:21;;;;;;;0.38;0.38;;;18.10;99.90;;;;;;5032744;28;20029;-72
2022/06/13 03:21:51;;;;;;;0.05;0.05;;;17.70;99.90;;;;;;5032850;28;20029;-73
2022/06/13 03:24:28;;;;;;;0.00;0.00;;;17.80;99.90;;;;;;5032903;28;20496;-73
2022/06/13 03:27:20;;;;;;;0.00;0.00;;;17.90;99.90;;;;;;5015017;28;20036;-72
2022/06/13 03:29:52;;;;;;;0.25;0.25;;;18.10;99.90;;;;;;5032524;28;20400;-73
2022/06/13 03:32:24;;;;;;;0.00;0.00;;;18.10;99.90;;;;;;5032734;28;20018;-73
2022/06/13 03:34:54;;;;;;;0.17;0.17;;;17.80;99.90;;;;;;5032687;28;20022;-73
2022/06/13 03:37:26;;;;;;;0.08;0.08;;;17.80;99.90;;;;;;5014864;28;20026;-73
2022/06/13 03:40:02;;;;;;;0.00;0.00;;;17.60;99.90;;;;;;5032530;28;20076;-74
2022/06/13 03:42:38;;;;;;;0.28;0.20;;;17.60;99.90;;;;;;5014665;28;20125;-74
2022/06/13 03:45:19;;;;;;;0.22;0.22;;;17.40;99.90;;;;;;5032518;28;20033;-74
2022/06/13 03:48:29;;;;;;;0.00;0.00;;;17.20;99.90;;;;;;5032491;28;20025;-74
2022/06/13 03:51:02;;;;;;;0.00;0.00;;;17.20;99.90;;;;;;4985448;28;20033;-74
2022/06/13 03:53:44;;;;;;;0.00;0.00;;;17.20;99.90;;;;;;5014751;28;20028;-74
2022/06/13 03:56:19;;;;;;;0.47;0.30;;;17.20;99.90;;;;;;5032330;28;20018;-74
2022/06/13 03:58:57;;;;;;;0.10;0.10;;;17.30;99.90;;;;;;5032167;28;20021;-74
2022/06/13 04:01:32;;;;;;;0.00;0.00;;;17.30;99.90;;;;;;4998185;28;20076;-74
2022/06/13 04:04:00;;;;;;;0.00;0.00;;;17.30;99.90;;;;;;5032198;28;20033;-74
2022/06/13 04:06:41;;;;;;;0.03;0.03;;;17.40;99.90;;;;;;5014491;28;20037;-74
2022/06/13 04:09:51;;;;;;;0.00;0.00;;;17.40;99.90;;;;;;5032154;28;20025;-74
2022/06/13 04:12:40;;;;;;;0.00;0.00;;;17.40;99.90;;;;;;4951452;29;20427;-73
2022/06/13 04:15:11;;;;;;;0.10;0.10;;;17.50;99.90;;;;;;5014427;28;20017;-74
2022/06/13 04:17:49;;;;;;;0.10;0.10;;;17.50;99.90;;;;;;5031968;28;20022;-74
2022/06/13 04:20:51;;;;;;;0.60;0.40;;;17.50;99.90;;;;;;4997812;28;20063;-74
2022/06/13 04:23:38;;;;;;;0.00;0.00;;;17.30;99.90;;;;;;5032113;28;20021;-73
2022/06/13 04:26:16;;;;;;;0.28;0.28;;;17.30;99.90;;;;;;5031946;28;20021;-74
2022/06/13 04:28:53;;;;;;;0.00;0.00;;;17.50;99.90;;;;;;5014172;28;20049;-74
2022/06/13 04:31:20;;;;;;;0.00;0.00;;;17.30;99.90;;;;;;5031855;28;20034;-74
2022/06/13 04:33:59;;;;;;;0.10;0.10;;;17.30;99.90;;;;;;5014221;28;20056;-74
2022/06/13 04:36:26;;;;;;;0.10;0.10;;;17.30;99.90;;;;;;5031835;28;20497;-74
2022/06/13 04:38:55;;;;;;;0.00;0.00;;;17.40;99.90;;;;;;5014064;28;20428;-73
2022/06/13 04:41:24;;;;;;;0.00;0.00;;;17.30;99.90;;;;;;5013967;28;20029;-74
2022/06/13 04:43:54;;;;;;;0.10;0.10;;;17.40;99.90;;;;;;5014012;28;20034;-74
2022/06/13 04:46:23;;;;;;;0.03;0.03;;;17.40;99.90;;;;;;5031814;28;20452;-73
2022/06/13 04:48:51;;;;;;;0.00;0.00;;;17.50;99.90;;;;;;5031089;28;20529;-74
2022/06/13 04:51:25;;;;;;;0.00;0.00;;;17.50;99.90;;;;;;5030877;28;20033;-74
2022/06/13 04:54:01;;;;;;;0.15;0.15;;;17.40;99.90;;;;;;5013950;28;20065;-74
2022/06/13 04:56:28;;;;;;;0.00;0.00;;;17.30;99.90;;;;;;5014012;28;20108;-74
2022/06/13 04:58:56;;;;;;;0.13;0.13;;;17.30;99.90;;;;;;4997427;28;20018;-73
2022/06/13 05:01:35;;;;;;;0.00;0.00;;;17.40;99.90;;;;;;5031376;28;20032;-74
2022/06/13 05:04:04;;;;;;;0.00;0.00;;;17.50;99.90;;;;;;5013695;28;20513;-74
2022/06/13 05:06:34;;;;;;;1.98;0.47;;;17.50;99.90;;;;;;5013801;28;20079;-74
2022/06/13 05:09:08;;;;;;;1.45;1.10;;;17.40;99.90;;;;;;5031374;28;20026;-74
2022/06/13 05:12:12;;;;;;;0.10;0.10;;;17.10;99.90;;;;;;5031301;28;20055;-74
2022/06/13 05:15:03;;;;;;;0.00;0.00;;;17.00;99.90;;;;;;5031484;28;20474;-73
2022/06/13 05:17:46;;;;;;;0.00;0.00;;;17.10;99.90;;;;;;5013736;28;20117;-74
2022/06/13 05:20:34;;;;;;;0.00;0.00;;;17.10;99.90;;;;;;5013697;28;20034;-76
2022/06/13 05:23:16;;;;;;;0.00;0.00;;;17.40;99.90;;;;;;5013731;28;20029;-74
2022/06/13 05:25:43;;;;;;;0.00;0.00;;;17.40;99.90;;;;;;5034911;28;20032;-74
2022/06/13 05:28:11;;;;;;;0.00;0.00;;;17.50;99.90;;;;;;5035113;28;20030;-74
2022/06/13 05:30:44;;;;;;;0.05;0.05;;;17.50;99.90;;;;;;5017057;28;20477;-74
2022/06/13 05:33:15;;;;;;;0.03;0.03;;;17.30;99.90;;;;;;5034702;28;20473;-73
2022/06/13 05:35:43;;;;;;;0.00;0.00;;;17.30;99.90;;;;;;5034727;28;20028;-73
2022/06/13 05:38:16;;;;;;;0.00;0.00;;;17.30;99.90;;;;;;5016798;28;20033;-73
2022/06/13 05:40:43;;;;;;;0.10;0.10;;;17.40;99.90;;;;;;5034686;28;20666;-73
2022/06/13 05:43:58;;;;;;;0.10;0.10;;;17.50;99.90;;;;;;5060001;22;20045;-93
2022/06/13 05:46:52;;;;;;;0.00;0.00;;;17.50;99.90;;;;;;4928080;29;20035;-89
2022/06/13 05:49:26;;;;;;;0.00;0.00;;;17.50;99.90;;;;;;4928267;28;20031;-90
2022/06/13 05:51:51;;;;;;;0.10;0.10;;;17.30;99.90;;;;;;5023601;28;20029;-92
2022/06/13 05:54:17;;;;;;;0.00;0.00;;;17.40;99.90;;;;;;5020271;28;20032;-91
2022/06/13 05:56:46;;;;;;;0.00;0.00;;;17.70;99.90;;;;;;5021828;28;20413;-91
2022/06/13 05:59:15;;;;;;;0.00;0.00;;;17.80;99.90;;;;;;5005567;28;20033;-92
2022/06/13 06:01:52;;;;;;;0.00;0.00;;;18.00;99.90;;;;;;5007636;28;20022;-90
2022/06/13 06:04:21;;;;;;;0.00;0.00;;;18.10;99.90;;;;;;5008531;28;20125;-90
2022/06/13 06:06:47;;;;;;;0.10;0.10;;;18.20;99.90;;;;;;5023890;28;20028;-93
2022/06/13 06:09:17;;;;;;;0.03;0.03;;;18.20;99.90;;;;;;5021561;28;20032;-91
2022/06/13 06:11:43;;;;;;;0.00;0.00;;;18.10;99.90;;;;;;5008287;28;20479;-92
2022/06/13 06:14:09;;;;;;;0.00;0.00;;;17.90;99.90;;;;;;4991388;28;20146;-92
2022/06/13 06:16:37;;;;;;;0.00;0.00;;;18.00;99.90;;;;;;4986761;28;20029;-94
2022/06/13 06:19:03;;;;;;;0.00;0.00;;;18.20;99.90;;;;;;4986632;28;20049;-92
2022/06/13 06:21:29;;;;;;;0.45;0.32;;;18.20;99.90;;;;;;4987124;28;20071;-92
2022/06/13 06:23:55;;;;;;;0.20;0.20;;;18.00;99.90;;;;;;4987757;28;20025;-91
2022/06/13 06:26:25;;;;;;;0.00;0.00;;;17.80;99.90;;;;;;4986588;28;20033;-93
2022/06/13 06:28:51;;;;;;;0.00;0.00;;;17.90;99.90;;;;;;4987150;28;20036;-91
2022/06/13 06:31:18;;;;;;;0.00;0.00;;;17.90;99.90;;;;;;4986731;28;20033;-93
2022/06/13 06:33:44;;;;;;;0.10;0.10;;;18.00;99.90;;;;;;4987497;28;20068;-91
2022/06/13 06:36:13;;;;;;;0.10;0.10;;;17.90;99.90;;;;;;4987301;28;20084;-91
2022/06/13 06:38:39;;;;;;;0.00;0.00;;;17.60;99.90;;;;;;4986705;28;20064;-92
2022/06/13 06:41:05;;;;;;;0.20;0.20;;;17.60;99.90;;;;;;4987174;28;20037;-93
2022/06/13 06:43:30;;;;;;;0.52;0.52;;;17.40;99.90;;;;;;4986404;28;20034;-90
2022/06/13 06:45:56;;;;;;;0.88;0.52;;;17.20;99.90;;;;;;4986836;28;20111;-89
2022/06/13 06:48:23;;;;;;;0.00;0.00;;;17.20;99.90;;;;;;5003097;28;20045;-89
2022/06/13 06:50:50;;;;;;;0.00;0.00;;;17.30;99.90;;;;;;4985576;28;20048;-91
2022/06/13 06:53:18;;;;;;;0.05;0.03;;;17.30;99.90;;;;;;4987069;28;20035;-89
2022/06/13 07:01:18;;;;;;;0.05;0.05;;;17.30;99.90;;;;;;5002733;28;20032;-92
2022/06/13 07:03:44;;;;;;;0.10;0.10;;;17.40;99.90;;;;;;4986206;28;20033;-93
2022/06/13 07:09:32;;;;;;;0.10;0.10;;;17.50;99.90;;;;;;5002184;28;20045;-92
2022/06/13 07:14:46;;;;;;;0.17;0.17;;;17.80;99.90;;;;;;4999085;28;20576;-72
2022/06/13 07:17:14;;;;;;;0.00;0.00;;;17.70;99.90;;;;;;5000201;28;20072;-69
2022/06/13 07:19:43;;;;;;;9.75;1.13;;;17.80;99.90;;;;;;4991178;28;20033;-70
2022/06/13 07:22:13;;;;;;;0.00;0.00;;;17.70;99.90;;;;;;5010408;28;20022;-72
2022/06/13 07:24:39;;;;;;;0.63;0.52;;;17.70;99.90;;;;;;5009946;28;20030;-71
2022/06/13 07:27:05;;;;;;;0.00;0.00;;;17.80;99.90;;;;;;5011814;28;20031;-71
2022/06/13 07:29:30;;;;;;;0.90;0.17;;;17.80;99.90;;;;;;4994430;28;20139;-71
2022/06/13 07:32:03;;;;;;;0.10;0.10;;;17.80;99.90;;;;;;5009920;28;20036;-72
2022/06/13 07:34:31;;;;;;;0.38;0.30;;;17.90;99.90;;;;;;5011759;28;20107;-72
2022/06/13 07:37:00;;;;;;;0.43;0.43;;;17.80;99.90;;;;;;5009087;28;20388;-71
2022/06/13 07:39:26;;;;;;;0.00;0.00;;;17.80;99.90;;;;;;4992298;28;20033;-72
2022/06/13 07:41:52;;;;;;;0.00;0.00;;;18.00;99.90;;;;;;5008936;28;20034;-72
2022/06/13 07:44:23;;;;;;;0.00;0.00;;;18.20;99.90;;;;;;5011672;28;20034;-70
2022/06/13 07:46:50;;;;;;;0.00;0.00;;;18.20;99.90;;;;;;5010131;28;20152;-72
2022/06/13 07:49:17;;;;;;;0.10;0.10;;;18.50;99.90;;;;;;5008984;28;20091;-72
2022/06/13 07:51:44;;;;;;;0.10;0.10;;;18.80;99.90;;;;;;4992278;28;20183;-72
2022/06/13 07:54:10;;;;;;;0.00;0.00;;;18.90;99.90;;;;;;5009651;28;20030;-72
2022/06/13 07:56:36;;;;;;;0.00;0.00;;;18.70;99.90;;;;;;5010516;28;20457;-72
2022/06/13 07:59:03;;;;;;;0.63;0.45;;;18.80;99.90;;;;;;4992137;28;20057;-72
2022/06/13 08:01:29;;;;;;;0.00;0.00;;;18.60;99.90;;;;;;5008734;28;20048;-72
2022/06/13 08:03:55;;;;;;;0.75;0.55;;;18.60;99.90;;;;;;5009689;28;20499;-71
2022/06/13 08:06:26;;;;;;;0.05;0.05;;;18.60;99.90;;;;;;5009982;28;20119;-72
2022/06/13 08:08:52;;;;;;;0.00;0.00;;;18.60;99.90;;;;;;5012188;28;20025;-72
2022/06/13 08:11:32;;;;;;;0.03;0.03;;;19.00;99.90;;;;;;4993199;28;20141;-71
2022/06/13 08:13:58;;;;;;;0.00;0.00;;;19.10;99.90;;;;;;5008941;28;21019;-72
2022/06/13 08:16:24;;;;;;;0.00;0.00;;;18.90;99.90;;;;;;5010510;28;20482;-72
2022/06/13 08:18:50;;;;;;;0.00;0.00;;;18.60;99.90;;;;;;5010323;28;20037;-72
2022/06/13 08:21:17;;;;;;;0.10;0.10;;;18.60;99.90;;;;;;4992219;28;20025;-72
2022/06/13 08:23:43;;;;;;;0.00;0.00;;;18.80;99.90;;;;;;5009069;28;20485;-72
2022/06/13 08:26:10;;;;;;;0.10;0.10;;;18.70;99.90;;;;;;5010930;28;20358;-71
2022/06/13 08:28:36;;;;;;;0.10;0.10;;;18.60;99.90;;;;;;5010945;28;20033;-71
2022/06/13 08:31:07;;;;;;;0.00;0.00;;;18.60;99.90;;;;;;4977556;28;20033;-71
2022/06/13 08:33:33;;;;;;;0.00;0.00;;;18.50;99.90;;;;;;4992650;28;20034;-71
2022/06/13 08:35:59;;;;;;;0.08;0.08;;;18.60;99.90;;;;;;5009738;28;20033;-72
2022/06/13 08:38:25;;;;;;;0.05;0.05;;;18.90;99.90;;;;;;5009886;28;20034;-72
2022/06/13 08:41:04;;;;;;;0.10;0.10;;;18.90;99.90;;;;;;5009025;28;20072;-71
2022/06/13 08:43:57;;;;;;;0.20;0.20;;;19.00;99.90;;;;;;5009074;28;20311;-71
2022/06/13 08:46:47;;;;;;;0.10;0.08;;;19.20;99.90;;;;;;5007979;28;20034;-71
2022/06/13 08:49:31;;;;;;;0.47;0.47;;;19.20;99.90;;;;;;5009045;28;20041;-72
2022/06/13 08:52:14;;;;;;;1.08;0.63;;;19.20;99.90;;;;;;5009413;28;20069;-69
2022/06/13 08:54:44;;;;;;;0.10;0.10;;;19.50;99.90;;;;;;5010713;28;20041;-69
2022/06/13 08:57:11;;;;;;;0.20;0.20;;;20.30;99.90;;;;;;5010293;28;20036;-69
2022/06/13 08:59:45;;;;;;;3.60;1.05;;;20.70;99.90;;;;;;5012917;28;20095;-70
2022/06/13 09:02:17;;;;;;;4.88;1.55;;;20.50;99.90;;;;;;5013304;28;20058;-69
2022/06/13 09:05:08;;;;;;;0.00;0.00;;;21.00;99.90;;;;;;4995467;28;20065;-70
2022/06/13 09:08:04;;;;;;;0.10;0.10;;;21.50;99.90;;;;;;4979292;28;20034;-69
2022/06/13 09:10:41;;;;;;;1.30;0.57;;;21.10;99.90;;;;;;5013194;28;20040;-69
2022/06/13 09:13:18;;;;;;;0.30;0.30;;;21.20;99.90;;;;;;4996946;28;20398;-70
2022/06/13 09:16:19;;;;;;;6.55;2.78;;;21.40;99.90;;;;;;5012382;28;20033;-70
2022/06/13 09:18:50;;;;;;;0.00;0.00;;;21.50;99.90;;;;;;4992951;28;20092;-70
2022/06/13 09:21:26;;;;;;;0.00;0.00;;;21.30;99.90;;;;;;4995130;28;20038;-69
2022/06/13 09:24:29;;;;;;;0.73;0.52;;;21.50;99.90;;;;;;5013389;28;20148;-71
2022/06/13 09:27:14;;;;;;;0.30;0.30;;;21.70;99.90;;;;;;4987074;28;20056;-67
2022/06/13 09:29:56;;;;;;;1.70;1.02;;;21.50;99.90;;;;;;5013719;28;20120;-72
2022/06/13 09:32:36;;;;;;;0.55;0.52;;;21.30;99.90;;;;;;4994302;28;20447;-72
2022/06/13 09:35:19;;;;;;;0.45;0.45;;;20.80;99.90;;;;;;4995676;28;20445;-72
2022/06/13 09:37:53;;;;;;;0.00;0.00;;;20.90;99.90;;;;;;5015362;28;20080;-72
2022/06/13 09:40:30;;;;;;;0.10;0.10;;;20.90;99.90;;;;;;5012964;28;20037;-69
2022/06/13 09:43:17;;;;;;;0.22;0.22;;;20.90;99.90;;;;;;5014282;28;20022;-70
2022/06/13 09:45:49;;;;;;;0.17;0.17;;;20.80;99.90;;;;;;5014354;28;20120;-69
2022/06/13 09:48:29;;;;;;;0.20;0.20;;;20.70;99.90;;;;;;5011280;28;20041;-69
2022/06/13 09:51:12;;;;;;;0.20;0.20;;;20.30;99.90;;;;;;5012783;28;20052;-72
2022/06/13 09:53:43;;;;;;;0.10;0.10;;;20.00;99.90;;;;;;5014162;28;20034;-72
2022/06/13 09:56:28;;;;;;;0.00;0.00;;;20.10;99.90;;;;;;5012948;28;20038;-72
2022/06/13 09:59:12;;;;;;;0.10;0.10;;;20.50;99.90;;;;;;5010077;28;20037;-70
2022/06/13 10:01:38;;;;;;;0.05;0.05;;;20.80;99.90;;;;;;5014514;28;20105;-70
2022/06/13 10:04:17;;;;;;;0.10;0.10;;;21.10;99.90;;;;;;5011467;28;20133;-72
2022/06/13 10:06:57;;;;;;;0.10;0.10;;;21.40;99.90;;;;;;5015270;28;20033;-70
2022/06/13 10:09:31;;;;;;;0.10;0.10;;;21.70;99.90;;;;;;5011441;28;20033;-73
2022/06/13 10:12:19;;;;;;;1.10;0.75;;;22.20;99.90;;;;;;5010536;28;20041;-70
2022/06/13 10:15:02;;;;;;;0.00;0.00;;;22.40;99.90;;;;;;5009693;28;20444;-70
2022/06/13 10:17:28;;;;;;;0.00;0.00;;;22.20;99.90;;;;;;4992475;28;20084;-70
2022/06/13 10:20:03;;;;;;;1.08;0.55;;;22.00;99.90;;;;;;4992217;28;20536;-70
2022/06/13 10:22:43;;;;;;;0.32;0.28;;;21.80;99.90;;;;;;5012418;28;21333;-70
2022/06/13 10:25:42;;;;;;;0.70;0.70;;;21.60;99.90;;;;;;5011055;28;20029;-69
2022/06/13 10:28:30;;;;;;;0.00;0.00;;;21.50;99.90;;;;;;4995364;28;20029;-69
2022/06/13 10:31:23;;;;;;;0.17;0.15;;;21.30;99.90;;;;;;4990455;28;20072;-69
2022/06/13 10:34:01;;;;;;;0.13;0.13;;;21.10;99.30;;;;;;5012902;28;20401;-69
2022/06/13 10:36:52;;;;;;;0.38;0.28;;;20.90;98.80;;;;;;5012473;28;20397;-69
2022/06/13 10:39:21;;;;;;;0.10;0.10;;;20.70;98.40;;;;;;5013928;28;20064;-70
2022/06/13 10:41:53;;;;;;;0.10;0.10;;;20.80;99.90;;;;;;5012430;28;20393;-70
2022/06/13 10:44:20;;;;;;;1.02;0.70;;;20.90;99.90;;;;;;5010664;28;20049;-70
2022/06/13 10:46:53;;;;;;;1.75;0.43;;;20.90;99.20;;;;;;5013182;28;20486;-69
2022/06/13 10:49:31;;;;;;;1.20;0.80;;;20.80;99.30;;;;;;4992336;28;20034;-70
2022/06/13 10:52:03;;;;;;;3.60;0.75;;;20.80;97.20;;;;;;4994894;28;20385;-70
2022/06/13 10:54:36;;;;;;;1.45;0.75;;;20.90;99.20;;;;;;5011620;28;20072;-70
2022/06/13 10:57:07;;;;;;;0.10;0.10;;;20.60;98.40;;;;;;5011564;28;20035;-70
2022/06/13 10:59:36;;;;;;;0.20;0.20;;;20.70;99.50;;;;;;5012868;28;21268;-70
2022/06/13 11:02:27;;;;;;;0.17;0.13;;;20.90;99.90;;;;;;5011691;28;20049;-69
2022/06/13 11:05:04;;;;;;;0.05;0.05;;;20.80;99.90;;;;;;5009847;28;20696;-69
2022/06/13 11:07:34;;;;;;;0.52;0.52;;;20.60;99.90;;;;;;5013036;28;20054;-70
2022/06/13 11:10:01;;;;;;;0.00;0.00;;;20.40;99.90;;;;;;4993390;28;20033;-70
2022/06/13 11:12:31;;;;;;;1.35;0.75;;;20.40;99.90;;;;;;5011559;28;20065;-70
2022/06/13 11:23:54;;;;;;;0.20;0.20;;;21.20;99.90;;;;;;5012464;28;20033;-70
2022/06/13 11:29:08;;;;;;;0.15;0.15;;;21.40;99.90;;;;;;5012129;28;20056;-70
2022/06/13 11:31:33;;;;;;;0.10;0.10;;;22.00;99.90;;;;;;5012071;28;20465;-70
2022/06/13 11:34:34;;;;;;;6.50;3.03;;;22.60;99.20;;;;;;5011904;28;20040;-70
2022/06/13 11:37:15;;;;;;;0.20;0.20;;;23.20;94.30;;;;;;5008935;28;20056;-70
2022/06/13 11:39:44;;;;;;;6.60;1.70;;;23.00;93.60;;;;;;5012264;28;20065;-72
2022/06/13 11:42:17;;;;;;;0.20;0.20;;;22.70;93.70;;;;;;4978553;28;20406;-70
2022/06/13 11:44:48;;;;;;;0.10;0.10;;;22.50;93.80;;;;;;4996334;28;20026;-70
2022/06/13 11:47:15;;;;;;;0.00;0.00;;;22.80;94.70;;;;;;4991864;28;20032;-70
2022/06/13 11:49:47;;;;;;;0.00;0.00;;;23.00;94.20;;;;;;4991821;28;20117;-70
2022/06/13 11:52:13;;;;;;;2.83;0.20;;;22.80;90.50;;;;;;5009229;28;20499;-70
2022/06/13 11:54:48;;;;;;;0.45;0.17;;;22.70;90.60;;;;;;5010775;28;20025;-70
2022/06/13 11:57:36;;;;;;;0.00;0.00;;;22.20;89.50;;;;;;5009363;28;20511;-70
2022/06/13 12:00:18;;;;;;;0.00;0.00;;;22.20;90.50;;;;;;4992455;28;20517;-70
2022/06/13 12:03:12;;;;;;;0.10;0.10;;;22.50;91.10;;;;;;5011282;28;20076;-71
2022/06/13 12:05:39;;;;;;;19.35;1.13;;;22.70;90.40;;;;;;5009499;28;20120;-71
2022/06/13 12:08:19;;;;;;;1.83;1.00;;;22.80;85.40;;;;;;4992524;28;20030;-71
2022/06/13 12:11:00;;;;;;;1.88;1.23;;;22.70;84.20;;;;;;4992099;28;20594;-71
2022/06/13 12:13:28;;;;;;;0.17;0.17;;;22.40;80.90;;;;;;5008890;28;20091;-71
2022/06/13 12:16:00;;;;;;;0.32;0.30;;;22.30;79.90;;;;;;4976183;28;21185;-71
2022/06/13 12:18:28;;;;;;;;;;;22.50;76.40;;;;;;5008922;28;20107;-71
2022/06/13 12:21:20;;;;;;;0.00;0.00;;;22.20;76.10;;;;;;5009162;28;20004;-71
2022/06/13 12:23:55;;;;;;;2.17;0.20;;;22.20;80.20;;;;;;4997554;28;20129;-71
2022/06/13 12:26:29;;;;;;;2.42;0.20;;;22.40;75.20;;;;;;5008523;28;20129;-75
2022/06/13 12:29:16;;;;;;;0.38;0.38;;;22.70;71.70;;;;;;5008829;28;20025;-70
2022/06/13 12:31:51;;;;;;;2.65;1.85;;;22.90;68.40;;;;;;5010672;28;20037;-70
2022/06/13 12:34:30;;;;;;;2.08;0.47;;;22.90;70.60;;;;;;5013223;28;20026;-70
2022/06/13 12:36:58;;;;;;;5.47;2.30;;;23.10;71.60;;;;;;4995515;28;20034;-70
2022/06/13 12:39:49;;;;;;;0.45;0.38;;;22.80;72.20;;;;;;5016750;28;20037;-70
2022/06/13 12:42:45;;;;;;;0.20;0.20;;;22.70;70.90;;;;;;5013840;28;20505;-71
2022/06/13 12:45:30;;;;;;;0.00;0.00;;;22.70;71.40;;;;;;5015576;28;20029;-70
2022/06/13 12:48:15;;;;;;;4.18;0.40;;;22.90;72.60;;;;;;5014758;28;20029;-71
2022/06/13 12:51:06;;;;;;;0.15;0.15;;;22.90;72.20;;;;;;5013853;28;20034;-70
2022/06/13 12:53:42;;;;;;;0.00;0.00;;;22.80;71.00;;;;;;5015740;28;20061;-70
2022/06/13 12:56:23;;;;;;;0.00;0.00;;;23.10;70.70;;;;;;5012763;28;20028;-71
2022/06/13 12:59:15;;;;;;;0.10;0.10;;;23.10;70.90;;;;;;5013595;28;20052;-71
2022/06/13 13:02:13;;;;;;;0.28;0.13;;;23.10;69.90;;;;;;5015038;28;20045;-71
2022/06/13 13:04:53;;;;;;;2.03;1.00;;;23.20;71.30;;;;;;4982097;28;20052;-70
2022/06/13 13:08:02;;;;;;;0.10;0.10;;;22.90;70.60;;;;;;4979740;28;20037;-70
2022/06/13 13:10:53;;;;;;;0.15;0.15;;;22.80;71.70;;;;;;4984606;28;20037;-71
2022/06/13 13:13:34;;;;;;;0.30;0.30;;;23.00;67.80;;;;;;5016282;28;20432;-69
2022/06/13 13:16:09;;;;;;;0.03;0.03;;;23.00;67.40;;;;;;4994640;28;20053;-70
2022/06/13 13:18:43;;;;;;;2.13;0.47;;;23.20;67.20;;;;;;4993401;28;21140;-71
2022/06/13 13:21:17;;;;;;;0.10;0.10;;;23.00;66.20;;;;;;5014763;28;20033;-71
2022/06/13 13:23:52;;;;;;;0.00;0.00;;;22.90;68.10;;;;;;5015288;28;20038;-71
2022/06/13 13:26:47;;;;;;;0.00;0.00;;;23.20;68.80;;;;;;5015489;28;20079;-75
2022/06/13 13:29:30;;;;;;;0.28;0.28;;;23.30;66.20;;;;;;5013712;28;20090;-74
2022/06/13 13:31:56;;;;;;;2.90;1.13;;;23.20;66.90;;;;;;4999115;28;20051;-75
2022/06/13 13:34:47;;;;;;;0.98;0.98;;;23.30;63.30;;;;;;5016248;28;20026;-74
2022/06/13 13:37:36;;;;;;;0.00;0.00;;;23.00;65.00;;;;;;5016717;28;20507;-70
2022/06/13 13:40:17;;;;;;;0.30;0.30;;;22.80;66.00;;;;;;5014351;28;20382;-70
2022/06/13 13:43:10;;;;;;;0.40;0.15;;;22.80;66.70;;;;;;5014053;28;20037;-70
2022/06/13 13:45:45;;;;;;;0.40;0.40;;;22.90;68.00;;;;;;4995543;28;20556;-70
2022/06/13 13:48:41;;;;;;;0.15;0.15;;;22.90;65.20;;;;;;4995794;28;20912;-70
2022/06/13 13:51:17;;;;;;;0.10;0.10;;;22.90;65.50;;;;;;5013166;28;20533;-70
2022/06/13 13:54:05;;;;;;;0.10;0.10;;;22.90;65.60;;;;;;4994297;28;20021;-69
2022/06/13 13:56:44;;;;;;;0.00;0.00;;;23.10;64.80;;;;;;5014077;28;20048;-71